Lee Vining, California
Current Conditions -  °F | °C
As of 5:15 PM on Sunday 23 Nov 2014 (Local Time) from KMMH Reporting Station
Overcast Overcast  
Wind Chill: 37°   Ceiling: 9000
Heat Index: 43°   Visibility: 10mi
Dew Point: -2°   Wind: 10mph
Humidity: 15%   Direction: 340°NNW
Pressure: 30.28"   Gusts: NA
Location:  37.96°N, 119.12°W
Report Text: KMMH 240115Z AUTO 34009KT 10SM OVC090 06/M19 A3028 RMK AO1
Loading
Personal Weather Stations






























Interactive Weather Map New forecast layout! Learn more

10-Day Weather Forecast

Advertisements
Track Severe Weather on mobile